sensor_id;sensor_type;location;lat;lon;timestamp;temperature;humidity
19555;DHT22;9924;50.828;6.440;2023-04-15T00:01:08;3.60;99.90
19555;DHT22;9924;50.828;6.440;2023-04-15T00:03:53;3.60;99.90
19555;DHT22;9924;50.828;6.440;2023-04-15T00:06:38;3.50;99.90
19555;DHT22;9924;50.828;6.440;2023-04-15T00:09:25;3.50;99.90
19555;DHT22;9924;50.828;6.440;2023-04-15T00:12:10;3.40;99.90
19555;DHT22;9924;50.828;6.440;2023-04-15T00:14:55;3.40;99.90
19555;DHT22;9924;50.828;6.440;2023-04-15T00:17:40;3.30;99.90
19555;DHT22;9924;50.828;6.440;2023-04-15T00:20:24;3.30;99.90
19555;DHT22;9924;50.828;6.440;2023-04-15T00:23:08;3.30;99.90
19555;DHT22;9924;50.828;6.440;2023-04-15T00:25:53;3.30;99.90
19555;DHT22;9924;50.828;6.440;2023-04-15T00:28:37;3.30;99.90
19555;DHT22;9924;50.828;6.440;2023-04-15T00:31:22;3.30;99.90
19555;DHT22;9924;50.828;6.440;2023-04-15T00:34:06;3.30;99.90
19555;DHT22;9924;50.828;6.440;2023-04-15T00:36:50;3.30;99.90
19555;DHT22;9924;50.828;6.440;2023-04-15T00:39:35;3.30;99.90
19555;DHT22;9924;50.828;6.440;2023-04-15T00:42:20;3.40;99.90
19555;DHT22;9924;50.828;6.440;2023-04-15T00:45:05;3.40;99.90
19555;DHT22;9924;50.828;6.440;2023-04-15T00:47:50;3.50;99.90
19555;DHT22;9924;50.828;6.440;2023-04-15T00:50:35;3.40;99.90
19555;DHT22;9924;50.828;6.440;2023-04-15T00:53:19;3.40;99.90
19555;DHT22;9924;50.828;6.440;2023-04-15T00:56:05;3.30;99.90
19555;DHT22;9924;50.828;6.440;2023-04-15T00:58:50;3.40;99.90
19555;DHT22;9924;50.828;6.440;2023-04-15T01:01:35;3.40;99.90
19555;DHT22;9924;50.828;6.440;2023-04-15T01:04:19;3.50;99.90
19555;DHT22;9924;50.828;6.440;2023-04-15T01:07:04;3.50;99.90
19555;DHT22;9924;50.828;6.440;2023-04-15T01:09:50;3.50;99.90
19555;DHT22;9924;50.828;6.440;2023-04-15T01:12:35;3.50;99.90
19555;DHT22;9924;50.828;6.440;2023-04-15T01:15:20;3.50;99.90
19555;DHT22;9924;50.828;6.440;2023-04-15T01:18:06;3.50;99.90
19555;DHT22;9924;50.828;6.440;2023-04-15T01:20:50;3.40;99.90
19555;DHT22;9924;50.828;6.440;2023-04-15T01:23:35;3.40;99.90
19555;DHT22;9924;50.828;6.440;2023-04-15T01:26:23;3.40;99.90
19555;DHT22;9924;50.828;6.440;2023-04-15T01:29:08;3.30;99.90
19555;DHT22;9924;50.828;6.440;2023-04-15T01:31:54;3.30;99.90
19555;DHT22;9924;50.828;6.440;2023-04-15T01:34:39;3.30;99.90
19555;DHT22;9924;50.828;6.440;2023-04-15T01:37:23;3.20;99.90
19555;DHT22;9924;50.828;6.440;2023-04-15T01:40:09;3.30;99.90
19555;DHT22;9924;50.828;6.440;2023-04-15T01:42:54;3.50;99.90
19555;DHT22;9924;50.828;6.440;2023-04-15T01:45:39;3.60;99.90
19555;DHT22;9924;50.828;6.440;2023-04-15T01:48:24;3.70;99.90
19555;DHT22;9924;50.828;6.440;2023-04-15T01:51:08;3.70;99.90
19555;DHT22;9924;50.828;6.440;2023-04-15T01:53:53;3.80;99.90
19555;DHT22;9924;50.828;6.440;2023-04-15T01:56:39;3.80;99.90
19555;DHT22;9924;50.828;6.440;2023-04-15T01:59:24;3.80;99.90
19555;DHT22;9924;50.828;6.440;2023-04-15T02:02:09;3.70;99.90
19555;DHT22;9924;50.828;6.440;2023-04-15T02:04:53;3.70;99.90
19555;DHT22;9924;50.828;6.440;2023-04-15T02:08:03;3.60;99.90
19555;DHT22;9924;50.828;6.440;2023-04-15T02:10:47;3.50;99.90
19555;DHT22;9924;50.828;6.440;2023-04-15T02:13:31;3.40;99.90
19555;DHT22;9924;50.828;6.440;2023-04-15T02:16:17;3.20;99.90
19555;DHT22;9924;50.828;6.440;2023-04-15T02:19:02;3.20;99.90
19555;DHT22;9924;50.828;6.440;2023-04-15T02:21:47;3.10;99.90
19555;DHT22;9924;50.828;6.440;2023-04-15T02:24:31;3.00;99.90
19555;DHT22;9924;50.828;6.440;2023-04-15T02:27:16;2.90;99.90
19555;DHT22;9924;50.828;6.440;2023-04-15T02:30:01;2.80;99.90
19555;DHT22;9924;50.828;6.440;2023-04-15T02:32:45;2.70;99.90
19555;DHT22;9924;50.828;6.440;2023-04-15T02:35:30;2.70;99.90
19555;DHT22;9924;50.828;6.440;2023-04-15T02:38:15;2.70;99.90
19555;DHT22;9924;50.828;6.440;2023-04-15T02:41:01;2.60;99.90
19555;DHT22;9924;50.828;6.440;2023-04-15T02:43:45;2.50;99.90
19555;DHT22;9924;50.828;6.440;2023-04-15T02:46:29;2.50;99.90
19555;DHT22;9924;50.828;6.440;2023-04-15T02:49:13;2.50;99.90
19555;DHT22;9924;50.828;6.440;2023-04-15T02:51:58;2.50;99.90
19555;DHT22;9924;50.828;6.440;2023-04-15T02:54:43;2.40;99.90
19555;DHT22;9924;50.828;6.440;2023-04-15T02:57:29;2.40;99.90
19555;DHT22;9924;50.828;6.440;2023-04-15T03:00:13;2.30;99.90
19555;DHT22;9924;50.828;6.440;2023-04-15T03:03:02;2.30;99.90
19555;DHT22;9924;50.828;6.440;2023-04-15T03:05:47;2.20;99.90
19555;DHT22;9924;50.828;6.440;2023-04-15T03:08:31;2.20;99.90
19555;DHT22;9924;50.828;6.440;2023-04-15T03:11:16;2.20;99.90
19555;DHT22;9924;50.828;6.440;2023-04-15T03:14:01;2.10;99.90
19555;DHT22;9924;50.828;6.440;2023-04-15T03:16:46;2.10;99.90
19555;DHT22;9924;50.828;6.440;2023-04-15T03:19:30;2.20;99.90
19555;DHT22;9924;50.828;6.440;2023-04-15T03:22:14;2.30;99.90
19555;DHT22;9924;50.828;6.440;2023-04-15T03:24:59;2.30;99.90
19555;DHT22;9924;50.828;6.440;2023-04-15T03:27:43;2.30;99.90
19555;DHT22;9924;50.828;6.440;2023-04-15T03:30:28;2.30;99.90
19555;DHT22;9924;50.828;6.440;2023-04-15T03:33:12;2.30;99.90
19555;DHT22;9924;50.828;6.440;2023-04-15T03:35:57;2.30;99.90
19555;DHT22;9924;50.828;6.440;2023-04-15T03:38:41;2.30;99.90
19555;DHT22;9924;50.828;6.440;2023-04-15T03:41:26;2.30;99.90
19555;DHT22;9924;50.828;6.440;2023-04-15T03:44:11;2.30;99.90
19555;DHT22;9924;50.828;6.440;2023-04-15T03:46:56;2.30;99.90
19555;DHT22;9924;50.828;6.440;2023-04-15T03:49:40;2.30;99.90
19555;DHT22;9924;50.828;6.440;2023-04-15T03:52:24;2.20;99.90
19555;DHT22;9924;50.828;6.440;2023-04-15T03:55:08;2.30;99.90
19555;DHT22;9924;50.828;6.440;2023-04-15T03:57:53;2.30;99.90
19555;DHT22;9924;50.828;6.440;2023-04-15T04:00:41;2.20;99.90
19555;DHT22;9924;50.828;6.440;2023-04-15T04:03:25;2.20;99.90
19555;DHT22;9924;50.828;6.440;2023-04-15T04:06:10;2.10;99.90
19555;DHT22;9924;50.828;6.440;2023-04-15T04:08:55;2.00;99.90
19555;DHT22;9924;50.828;6.440;2023-04-15T04:11:40;1.80;99.90
19555;DHT22;9924;50.828;6.440;2023-04-15T04:14:25;1.80;99.90
19555;DHT22;9924;50.828;6.440;2023-04-15T04:17:12;1.80;99.90
19555;DHT22;9924;50.828;6.440;2023-04-15T04:19:57;1.80;99.90
19555;DHT22;9924;50.828;6.440;2023-04-15T04:22:41;1.80;99.90
19555;DHT22;9924;50.828;6.440;2023-04-15T04:25:25;1.80;99.90
19555;DHT22;9924;50.828;6.440;2023-04-15T04:28:10;1.80;99.90
19555;DHT22;9924;50.828;6.440;2023-04-15T04:30:55;1.70;99.90
19555;DHT22;9924;50.828;6.440;2023-04-15T04:33:39;1.70;99.90
19555;DHT22;9924;50.828;6.440;2023-04-15T04:36:24;1.70;99.90
19555;DHT22;9924;50.828;6.440;2023-04-15T04:39:09;1.80;99.90
19555;DHT22;9924;50.828;6.440;2023-04-15T04:41:53;2.00;99.90
19555;DHT22;9924;50.828;6.440;2023-04-15T04:44:39;2.10;99.90
19555;DHT22;9924;50.828;6.440;2023-04-15T04:47:23;2.20;99.90
19555;DHT22;9924;50.828;6.440;2023-04-15T04:50:08;2.30;99.90
19555;DHT22;9924;50.828;6.440;2023-04-15T04:52:52;2.30;99.90
19555;DHT22;9924;50.828;6.440;2023-04-15T04:55:37;2.40;99.90
19555;DHT22;9924;50.828;6.440;2023-04-15T04:58:21;2.50;99.90
19555;DHT22;9924;50.828;6.440;2023-04-15T05:01:05;2.60;99.90
19555;DHT22;9924;50.828;6.440;2023-04-15T05:03:50;2.70;99.90
19555;DHT22;9924;50.828;6.440;2023-04-15T05:06:34;2.60;99.90
19555;DHT22;9924;50.828;6.440;2023-04-15T05:09:19;2.60;99.90
19555;DHT22;9924;50.828;6.440;2023-04-15T05:12:04;2.50;99.90
19555;DHT22;9924;50.828;6.440;2023-04-15T05:14:49;2.50;99.90
19555;DHT22;9924;50.828;6.440;2023-04-15T05:17:34;2.50;99.90
19555;DHT22;9924;50.828;6.440;2023-04-15T05:20:18;2.50;99.90
19555;DHT22;9924;50.828;6.440;2023-04-15T05:23:03;2.40;99.90
19555;DHT22;9924;50.828;6.440;2023-04-15T05:25:47;2.40;99.90
19555;DHT22;9924;50.828;6.440;2023-04-15T05:28:32;2.40;99.90
19555;DHT22;9924;50.828;6.440;2023-04-15T05:31:16;2.50;99.90
19555;DHT22;9924;50.828;6.440;2023-04-15T05:34:00;2.50;99.90
19555;DHT22;9924;50.828;6.440;2023-04-15T05:36:45;2.70;99.90
19555;DHT22;9924;50.828;6.440;2023-04-15T05:39:30;2.80;99.90
19555;DHT22;9924;50.828;6.440;2023-04-15T05:42:15;2.90;99.90
19555;DHT22;9924;50.828;6.440;2023-04-15T05:44:59;3.10;99.90
19555;DHT22;9924;50.828;6.440;2023-04-15T05:47:45;3.30;99.90
19555;DHT22;9924;50.828;6.440;2023-04-15T05:50:29;3.40;99.90
19555;DHT22;9924;50.828;6.440;2023-04-15T05:53:14;3.70;99.90
19555;DHT22;9924;50.828;6.440;2023-04-15T05:55:58;3.90;99.90
19555;DHT22;9924;50.828;6.440;2023-04-15T05:58:43;4.10;99.90
19555;DHT22;9924;50.828;6.440;2023-04-15T06:01:27;4.30;99.90
19555;DHT22;9924;50.828;6.440;2023-04-15T06:04:11;4.60;99.90
19555;DHT22;9924;50.828;6.440;2023-04-15T06:06:56;5.00;99.90
19555;DHT22;9924;50.828;6.440;2023-04-15T06:09:41;5.20;99.90
19555;DHT22;9924;50.828;6.440;2023-04-15T06:12:25;5.40;99.90
19555;DHT22;9924;50.828;6.440;2023-04-15T06:15:09;5.70;99.90
19555;DHT22;9924;50.828;6.440;2023-04-15T06:17:54;5.90;99.90
19555;DHT22;9924;50.828;6.440;2023-04-15T06:20:39;6.20;99.90
19555;DHT22;9924;50.828;6.440;2023-04-15T06:23:23;6.30;99.90
19555;DHT22;9924;50.828;6.440;2023-04-15T06:26:08;6.40;99.90
19555;DHT22;9924;50.828;6.440;2023-04-15T06:28:52;6.60;99.90
19555;DHT22;9924;50.828;6.440;2023-04-15T06:31:36;6.80;99.90
19555;DHT22;9924;50.828;6.440;2023-04-15T06:34:21;6.90;99.90
19555;DHT22;9924;50.828;6.440;2023-04-15T06:37:06;7.10;99.90
19555;DHT22;9924;50.828;6.440;2023-04-15T06:39:50;7.10;99.90
19555;DHT22;9924;50.828;6.440;2023-04-15T06:42:34;7.20;99.90
19555;DHT22;9924;50.828;6.440;2023-04-15T06:45:20;7.30;99.90
19555;DHT22;9924;50.828;6.440;2023-04-15T06:48:05;7.50;99.90
19555;DHT22;9924;50.828;6.440;2023-04-15T06:50:51;7.60;99.90
19555;DHT22;9924;50.828;6.440;2023-04-15T06:53:35;7.70;99.90
19555;DHT22;9924;50.828;6.440;2023-04-15T06:56:24;7.70;99.90
19555;DHT22;9924;50.828;6.440;2023-04-15T06:59:08;7.70;99.90
19555;DHT22;9924;50.828;6.440;2023-04-15T07:01:53;7.80;99.90
19555;DHT22;9924;50.828;6.440;2023-04-15T07:04:37;7.80;99.90
19555;DHT22;9924;50.828;6.440;2023-04-15T07:07:21;7.70;99.90
19555;DHT22;9924;50.828;6.440;2023-04-15T07:10:06;7.70;99.90
19555;DHT22;9924;50.828;6.440;2023-04-15T07:12:51;7.70;99.90
19555;DHT22;9924;50.828;6.440;2023-04-15T07:15:35;7.50;99.90
19555;DHT22;9924;50.828;6.440;2023-04-15T07:18:20;7.70;99.90
19555;DHT22;9924;50.828;6.440;2023-04-15T07:21:04;7.90;99.90
19555;DHT22;9924;50.828;6.440;2023-04-15T07:23:49;8.10;99.90
19555;DHT22;9924;50.828;6.440;2023-04-15T07:26:34;8.30;99.90
19555;DHT22;9924;50.828;6.440;2023-04-15T07:29:18;8.50;99.90
19555;DHT22;9924;50.828;6.440;2023-04-15T07:32:03;8.70;99.90
19555;DHT22;9924;50.828;6.440;2023-04-15T07:34:47;9.00;99.90
19555;DHT22;9924;50.828;6.440;2023-04-15T07:37:31;9.20;99.90
19555;DHT22;9924;50.828;6.440;2023-04-15T07:40:17;9.20;99.90
19555;DHT22;9924;50.828;6.440;2023-04-15T07:43:01;9.10;99.90
19555;DHT22;9924;50.828;6.440;2023-04-15T07:45:45;9.50;99.90
19555;DHT22;9924;50.828;6.440;2023-04-15T07:48:30;9.90;99.90
19555;DHT22;9924;50.828;6.440;2023-04-15T07:51:14;10.00;99.90
19555;DHT22;9924;50.828;6.440;2023-04-15T07:53:58;10.30;99.90
19555;DHT22;9924;50.828;6.440;2023-04-15T07:56:42;10.50;99.90
19555;DHT22;9924;50.828;6.440;2023-04-15T07:59:29;10.60;99.90
19555;DHT22;9924;50.828;6.440;2023-04-15T08:02:14;10.70;99.90
19555;DHT22;9924;50.828;6.440;2023-04-15T08:04:58;10.80;99.90
19555;DHT22;9924;50.828;6.440;2023-04-15T08:07:45;10.80;99.90
19555;DHT22;9924;50.828;6.440;2023-04-15T08:10:29;10.60;99.90
19555;DHT22;9924;50.828;6.440;2023-04-15T08:13:14;10.70;99.90
19555;DHT22;9924;50.828;6.440;2023-04-15T08:19:03;11.10;99.90
19555;DHT22;9924;50.828;6.440;2023-04-15T08:21:48;11.30;99.90
19555;DHT22;9924;50.828;6.440;2023-04-15T08:24:33;11.50;99.90
19555;DHT22;9924;50.828;6.440;2023-04-15T08:27:18;11.70;99.90
19555;DHT22;9924;50.828;6.440;2023-04-15T08:30:03;11.90;99.90
19555;DHT22;9924;50.828;6.440;2023-04-15T08:32:49;12.10;99.90
19555;DHT22;9924;50.828;6.440;2023-04-15T08:35:33;12.30;99.90
19555;DHT22;9924;50.828;6.440;2023-04-15T08:38:18;12.30;99.90
19555;DHT22;9924;50.828;6.440;2023-04-15T08:41:11;12.40;99.90
19555;DHT22;9924;50.828;6.440;2023-04-15T08:44:04;12.60;99.90
19555;DHT22;9924;50.828;6.440;2023-04-15T08:46:48;12.80;99.90
19555;DHT22;9924;50.828;6.440;2023-04-15T08:49:36;13.10;99.90
19555;DHT22;9924;50.828;6.440;2023-04-15T08:52:24;13.20;99.90
19555;DHT22;9924;50.828;6.440;2023-04-15T08:55:11;13.20;99.90
19555;DHT22;9924;50.828;6.440;2023-04-15T08:57:56;13.10;99.90
19555;DHT22;9924;50.828;6.440;2023-04-15T09:00:42;12.90;99.90
19555;DHT22;9924;50.828;6.440;2023-04-15T09:03:27;12.90;99.90
19555;DHT22;9924;50.828;6.440;2023-04-15T09:06:12;13.20;99.90
19555;DHT22;9924;50.828;6.440;2023-04-15T09:08:56;13.40;99.90
19555;DHT22;9924;50.828;6.440;2023-04-15T09:11:41;13.70;99.90
19555;DHT22;9924;50.828;6.440;2023-04-15T09:14:28;13.70;99.90
19555;DHT22;9924;50.828;6.440;2023-04-15T09:17:18;13.80;99.90
19555;DHT22;9924;50.828;6.440;2023-04-15T09:20:14;13.90;99.90
19555;DHT22;9924;50.828;6.440;2023-04-15T09:22:59;13.80;99.90
19555;DHT22;9924;50.828;6.440;2023-04-15T09:25:44;13.80;99.90
19555;DHT22;9924;50.828;6.440;2023-04-15T09:28:30;14.00;99.90
19555;DHT22;9924;50.828;6.440;2023-04-15T09:31:14;14.10;99.90
19555;DHT22;9924;50.828;6.440;2023-04-15T09:33:59;13.90;99.90
19555;DHT22;9924;50.828;6.440;2023-04-15T09:39:50;14.00;99.90
19555;DHT22;9924;50.828;6.440;2023-04-15T09:42:36;14.00;99.90
19555;DHT22;9924;50.828;6.440;2023-04-15T09:45:21;14.20;99.90
19555;DHT22;9924;50.828;6.440;2023-04-15T09:51:00;14.00;99.90
19555;DHT22;9924;50.828;6.440;2023-04-15T09:53:45;14.20;99.90
19555;DHT22;9924;50.828;6.440;2023-04-15T09:56:37;14.10;99.90
19555;DHT22;9924;50.828;6.440;2023-04-15T09:59:24;14.00;99.90
19555;DHT22;9924;50.828;6.440;2023-04-15T10:02:10;13.80;99.90
19555;DHT22;9924;50.828;6.440;2023-04-15T10:04:57;13.60;99.90
19555;DHT22;9924;50.828;6.440;2023-04-15T10:07:43;13.60;99.90
19555;DHT22;9924;50.828;6.440;2023-04-15T10:10:27;13.40;99.90
19555;DHT22;9924;50.828;6.440;2023-04-15T10:13:20;13.60;99.90
19555;DHT22;9924;50.828;6.440;2023-04-15T10:16:13;13.70;99.90
19555;DHT22;9924;50.828;6.440;2023-04-15T10:19:00;13.60;99.90
19555;DHT22;9924;50.828;6.440;2023-04-15T10:21:45;13.50;99.90
19555;DHT22;9924;50.828;6.440;2023-04-15T10:24:32;13.40;99.90
19555;DHT22;9924;50.828;6.440;2023-04-15T10:27:18;13.60;99.90
19555;DHT22;9924;50.828;6.440;2023-04-15T10:30:04;13.90;99.90
19555;DHT22;9924;50.828;6.440;2023-04-15T10:32:49;13.90;99.90
19555;DHT22;9924;50.828;6.440;2023-04-15T10:35:34;14.00;99.90
19555;DHT22;9924;50.828;6.440;2023-04-15T10:41:23;14.20;99.90
19555;DHT22;9924;50.828;6.440;2023-04-15T10:44:07;14.30;99.90
19555;DHT22;9924;50.828;6.440;2023-04-15T10:46:52;14.30;99.90
19555;DHT22;9924;50.828;6.440;2023-04-15T10:49:55;14.00;99.90
19555;DHT22;9924;50.828;6.440;2023-04-15T10:52:40;14.00;99.90
19555;DHT22;9924;50.828;6.440;2023-04-15T10:55:26;14.20;99.90
19555;DHT22;9924;50.828;6.440;2023-04-15T10:58:14;14.50;99.90
19555;DHT22;9924;50.828;6.440;2023-04-15T11:01:01;14.80;99.90
19555;DHT22;9924;50.828;6.440;2023-04-15T11:03:45;14.90;99.90
19555;DHT22;9924;50.828;6.440;2023-04-15T11:06:43;14.50;99.90
19555;DHT22;9924;50.828;6.440;2023-04-15T11:09:33;14.20;99.90
19555;DHT22;9924;50.828;6.440;2023-04-15T11:12:18;14.00;99.90
19555;DHT22;9924;50.828;6.440;2023-04-15T11:15:31;14.30;99.90
19555;DHT22;9924;50.828;6.440;2023-04-15T11:18:22;14.70;99.90
19555;DHT22;9924;50.828;6.440;2023-04-15T11:21:07;14.70;99.90
19555;DHT22;9924;50.828;6.440;2023-04-15T11:23:52;14.60;99.90
19555;DHT22;9924;50.828;6.440;2023-04-15T11:26:36;14.50;99.90
19555;DHT22;9924;50.828;6.440;2023-04-15T11:29:21;14.20;99.90
19555;DHT22;9924;50.828;6.440;2023-04-15T11:32:08;14.00;99.90
19555;DHT22;9924;50.828;6.440;2023-04-15T11:34:53;13.80;99.90
19555;DHT22;9924;50.828;6.440;2023-04-15T11:37:37;13.70;99.90
19555;DHT22;9924;50.828;6.440;2023-04-15T11:40:29;13.70;99.90
19555;DHT22;9924;50.828;6.440;2023-04-15T11:43:19;13.70;99.90
19555;DHT22;9924;50.828;6.440;2023-04-15T11:46:04;13.80;99.90
19555;DHT22;9924;50.828;6.440;2023-04-15T11:48:48;14.20;99.90
19555;DHT22;9924;50.828;6.440;2023-04-15T11:51:33;14.20;99.90
19555;DHT22;9924;50.828;6.440;2023-04-15T11:54:18;14.40;99.90
19555;DHT22;9924;50.828;6.440;2023-04-15T11:57:03;14.60;99.90
19555;DHT22;9924;50.828;6.440;2023-04-15T11:59:48;14.60;99.90
19555;DHT22;9924;50.828;6.440;2023-04-15T12:02:35;14.70;99.90
19555;DHT22;9924;50.828;6.440;2023-04-15T12:05:20;14.70;99.90
19555;DHT22;9924;50.828;6.440;2023-04-15T12:08:05;15.00;99.90
19555;DHT22;9924;50.828;6.440;2023-04-15T12:10:49;14.90;99.90
19555;DHT22;9924;50.828;6.440;2023-04-15T12:13:34;15.00;99.90
19555;DHT22;9924;50.828;6.440;2023-04-15T12:16:19;15.10;99.90
19555;DHT22;9924;50.828;6.440;2023-04-15T12:19:12;14.80;99.90
19555;DHT22;9924;50.828;6.440;2023-04-15T12:21:59;14.50;99.90
19555;DHT22;9924;50.828;6.440;2023-04-15T12:24:44;15.00;99.90
19555;DHT22;9924;50.828;6.440;2023-04-15T12:27:32;15.50;99.90
19555;DHT22;9924;50.828;6.440;2023-04-15T12:30:18;15.70;99.90
19555;DHT22;9924;50.828;6.440;2023-04-15T12:33:03;15.10;99.90
19555;DHT22;9924;50.828;6.440;2023-04-15T12:35:48;14.70;99.90
19555;DHT22;9924;50.828;6.440;2023-04-15T12:38:32;15.00;99.90
19555;DHT22;9924;50.828;6.440;2023-04-15T12:41:17;15.30;99.90
19555;DHT22;9924;50.828;6.440;2023-04-15T12:44:01;16.00;99.90
19555;DHT22;9924;50.828;6.440;2023-04-15T12:46:46;15.40;99.90
19555;DHT22;9924;50.828;6.440;2023-04-15T12:49:30;14.90;99.90
19555;DHT22;9924;50.828;6.440;2023-04-15T12:52:15;14.40;99.90
19555;DHT22;9924;50.828;6.440;2023-04-15T12:55:00;14.20;99.90
19555;DHT22;9924;50.828;6.440;2023-04-15T12:57:45;14.00;99.90
19555;DHT22;9924;50.828;6.440;2023-04-15T13:00:29;14.00;99.90
19555;DHT22;9924;50.828;6.440;2023-04-15T13:03:14;14.10;99.90
19555;DHT22;9924;50.828;6.440;2023-04-15T13:05:58;13.90;99.90
19555;DHT22;9924;50.828;6.440;2023-04-15T13:08:45;13.70;99.90
19555;DHT22;9924;50.828;6.440;2023-04-15T13:11:29;13.50;99.90
19555;DHT22;9924;50.828;6.440;2023-04-15T13:14:14;13.40;99.90
19555;DHT22;9924;50.828;6.440;2023-04-15T13:16:59;13.30;99.90
19555;DHT22;9924;50.828;6.440;2023-04-15T13:19:43;13.30;99.90
19555;DHT22;9924;50.828;6.440;2023-04-15T13:22:28;13.40;99.90
19555;DHT22;9924;50.828;6.440;2023-04-15T13:25:13;13.40;99.90
19555;DHT22;9924;50.828;6.440;2023-04-15T13:27:57;13.50;99.90
19555;DHT22;9924;50.828;6.440;2023-04-15T13:30:41;13.50;99.90
19555;DHT22;9924;50.828;6.440;2023-04-15T13:33:27;13.50;99.90
19555;DHT22;9924;50.828;6.440;2023-04-15T13:36:11;13.60;99.90
19555;DHT22;9924;50.828;6.440;2023-04-15T13:38:55;13.50;99.90
19555;DHT22;9924;50.828;6.440;2023-04-15T13:41:40;13.30;99.90
19555;DHT22;9924;50.828;6.440;2023-04-15T13:44:24;13.20;99.90
19555;DHT22;9924;50.828;6.440;2023-04-15T13:47:09;13.10;99.90
19555;DHT22;9924;50.828;6.440;2023-04-15T13:49:54;13.00;99.90
19555;DHT22;9924;50.828;6.440;2023-04-15T13:52:39;12.80;99.90
19555;DHT22;9924;50.828;6.440;2023-04-15T13:55:24;12.70;99.90
19555;DHT22;9924;50.828;6.440;2023-04-15T13:58:09;12.90;99.90
19555;DHT22;9924;50.828;6.440;2023-04-15T14:00:54;12.90;99.90
19555;DHT22;9924;50.828;6.440;2023-04-15T14:03:39;12.90;99.90
19555;DHT22;9924;50.828;6.440;2023-04-15T14:06:23;12.90;99.90
19555;DHT22;9924;50.828;6.440;2023-04-15T14:09:09;12.90;99.90
19555;DHT22;9924;50.828;6.440;2023-04-15T14:11:53;12.80;99.90
19555;DHT22;9924;50.828;6.440;2023-04-15T14:14:37;12.80;99.90
19555;DHT22;9924;50.828;6.440;2023-04-15T14:17:22;12.80;99.90
19555;DHT22;9924;50.828;6.440;2023-04-15T14:20:07;12.90;99.90
19555;DHT22;9924;50.828;6.440;2023-04-15T14:22:51;12.90;99.90
19555;DHT22;9924;50.828;6.440;2023-04-15T14:25:36;12.90;99.90
19555;DHT22;9924;50.828;6.440;2023-04-15T14:28:23;12.90;99.90
19555;DHT22;9924;50.828;6.440;2023-04-15T14:31:07;13.00;99.90
19555;DHT22;9924;50.828;6.440;2023-04-15T14:33:51;12.90;99.90
19555;DHT22;9924;50.828;6.440;2023-04-15T14:36:36;13.00;99.90
19555;DHT22;9924;50.828;6.440;2023-04-15T14:39:20;12.80;99.90
19555;DHT22;9924;50.828;6.440;2023-04-15T14:42:06;12.70;99.90
19555;DHT22;9924;50.828;6.440;2023-04-15T14:44:50;12.60;99.90
19555;DHT22;9924;50.828;6.440;2023-04-15T14:47:34;12.50;99.90
19555;DHT22;9924;50.828;6.440;2023-04-15T14:50:19;12.60;99.90
19555;DHT22;9924;50.828;6.440;2023-04-15T14:53:03;12.70;99.90
19555;DHT22;9924;50.828;6.440;2023-04-15T14:55:47;12.80;99.90
19555;DHT22;9924;50.828;6.440;2023-04-15T14:58:32;13.10;99.90
19555;DHT22;9924;50.828;6.440;2023-04-15T15:01:17;13.30;99.90
19555;DHT22;9924;50.828;6.440;2023-04-15T15:04:02;13.20;99.90
19555;DHT22;9924;50.828;6.440;2023-04-15T15:06:46;13.10;99.90
19555;DHT22;9924;50.828;6.440;2023-04-15T15:09:31;13.10;99.90
19555;DHT22;9924;50.828;6.440;2023-04-15T15:12:15;13.10;99.90
19555;DHT22;9924;50.828;6.440;2023-04-15T15:15:00;13.00;99.90
19555;DHT22;9924;50.828;6.440;2023-04-15T15:17:45;12.90;99.90
19555;DHT22;9924;50.828;6.440;2023-04-15T15:20:29;12.90;99.90
19555;DHT22;9924;50.828;6.440;2023-04-15T15:23:14;13.00;99.90
19555;DHT22;9924;50.828;6.440;2023-04-15T15:25:59;13.00;99.90
19555;DHT22;9924;50.828;6.440;2023-04-15T15:28:43;12.90;99.90
19555;DHT22;9924;50.828;6.440;2023-04-15T15:31:29;13.00;99.90
19555;DHT22;9924;50.828;6.440;2023-04-15T15:34:14;13.40;99.90
19555;DHT22;9924;50.828;6.440;2023-04-15T15:36:59;13.50;99.90
19555;DHT22;9924;50.828;6.440;2023-04-15T15:39:43;13.40;99.90
19555;DHT22;9924;50.828;6.440;2023-04-15T15:42:30;13.40;99.90
19555;DHT22;9924;50.828;6.440;2023-04-15T15:45:15;13.50;99.90
19555;DHT22;9924;50.828;6.440;2023-04-15T15:48:00;13.50;99.90
19555;DHT22;9924;50.828;6.440;2023-04-15T15:50:45;13.50;99.90
19555;DHT22;9924;50.828;6.440;2023-04-15T15:53:29;13.40;99.90
19555;DHT22;9924;50.828;6.440;2023-04-15T15:56:14;13.40;99.90
19555;DHT22;9924;50.828;6.440;2023-04-15T15:58:58;13.40;99.90
19555;DHT22;9924;50.828;6.440;2023-04-15T16:01:44;13.50;99.90
19555;DHT22;9924;50.828;6.440;2023-04-15T16:04:28;13.50;99.90
19555;DHT22;9924;50.828;6.440;2023-04-15T16:07:13;13.50;99.90
19555;DHT22;9924;50.828;6.440;2023-04-15T16:09:59;13.40;99.90
19555;DHT22;9924;50.828;6.440;2023-04-15T16:12:43;13.20;99.90
19555;DHT22;9924;50.828;6.440;2023-04-15T16:15:27;12.90;99.90
19555;DHT22;9924;50.828;6.440;2023-04-15T16:18:12;12.80;99.90
19555;DHT22;9924;50.828;6.440;2023-04-15T16:20:56;12.70;99.90
19555;DHT22;9924;50.828;6.440;2023-04-15T16:23:41;12.70;99.90
19555;DHT22;9924;50.828;6.440;2023-04-15T16:26:25;12.50;99.90
19555;DHT22;9924;50.828;6.440;2023-04-15T16:29:10;12.40;99.90
19555;DHT22;9924;50.828;6.440;2023-04-15T16:31:54;12.40;99.90
19555;DHT22;9924;50.828;6.440;2023-04-15T16:34:39;12.50;99.90
19555;DHT22;9924;50.828;6.440;2023-04-15T16:37:25;12.50;99.90
19555;DHT22;9924;50.828;6.440;2023-04-15T16:40:10;12.30;99.90
19555;DHT22;9924;50.828;6.440;2023-04-15T16:42:54;12.30;99.90
19555;DHT22;9924;50.828;6.440;2023-04-15T16:45:39;12.30;99.90
19555;DHT22;9924;50.828;6.440;2023-04-15T16:48:23;12.30;99.90
19555;DHT22;9924;50.828;6.440;2023-04-15T16:51:07;12.20;99.90
19555;DHT22;9924;50.828;6.440;2023-04-15T16:53:52;12.10;99.90
19555;DHT22;9924;50.828;6.440;2023-04-15T16:56:36;12.20;99.90
19555;DHT22;9924;50.828;6.440;2023-04-15T16:59:21;12.20;99.90
19555;DHT22;9924;50.828;6.440;2023-04-15T17:02:06;12.10;99.90
19555;DHT22;9924;50.828;6.440;2023-04-15T17:04:53;12.00;99.90
19555;DHT22;9924;50.828;6.440;2023-04-15T17:07:37;11.90;99.90
19555;DHT22;9924;50.828;6.440;2023-04-15T17:10:22;11.70;99.90
19555;DHT22;9924;50.828;6.440;2023-04-15T17:13:06;11.70;99.90
19555;DHT22;9924;50.828;6.440;2023-04-15T17:15:50;11.70;99.90
19555;DHT22;9924;50.828;6.440;2023-04-15T17:18:34;11.60;99.90
19555;DHT22;9924;50.828;6.440;2023-04-15T17:21:19;11.50;99.90
19555;DHT22;9924;50.828;6.440;2023-04-15T17:24:04;11.30;99.90
19555;DHT22;9924;50.828;6.440;2023-04-15T17:26:49;11.20;99.90
19555;DHT22;9924;50.828;6.440;2023-04-15T17:29:33;11.20;99.90
19555;DHT22;9924;50.828;6.440;2023-04-15T17:32:18;11.20;99.90
19555;DHT22;9924;50.828;6.440;2023-04-15T17:35:03;11.10;99.90
19555;DHT22;9924;50.828;6.440;2023-04-15T17:37:49;11.00;99.90
19555;DHT22;9924;50.828;6.440;2023-04-15T17:40:33;11.00;99.90
19555;DHT22;9924;50.828;6.440;2023-04-15T17:43:18;11.00;99.90
19555;DHT22;9924;50.828;6.440;2023-04-15T17:46:02;10.90;99.90
19555;DHT22;9924;50.828;6.440;2023-04-15T17:48:46;10.70;99.90
19555;DHT22;9924;50.828;6.440;2023-04-15T17:51:31;10.60;99.90
19555;DHT22;9924;50.828;6.440;2023-04-15T17:54:15;10.50;99.90
19555;DHT22;9924;50.828;6.440;2023-04-15T17:56:59;10.50;99.90
19555;DHT22;9924;50.828;6.440;2023-04-15T17:59:46;10.40;99.90